Time;durP1;ratioP1;P1;durP2;ratioP2;P2;SDS_P1;SDS_P2;PMS_P1;PMS_P2;Temp;Humidity;BMP_temperature;BMP_pressure;BME280_temperature;BME280_humidity;BME280_pressure;Samples;Min_cycle;Max_cycle;Signal;HPM_P1;HPM_P2
2022/09/05 00:00:47;;;;;;;0.40;0.40;;;;;;;;;;5117929;27;20572;-62
2022/09/05 00:03:43;;;;;;;0.40;0.40;;;;;;;;;;5121190;27;20198;-62
2022/09/05 00:06:34;;;;;;;0.50;0.50;;;;;;;;;;5119113;27;20261;-63
2022/09/05 00:09:55;;;;;;;0.30;0.30;;;;;;;;;;5116296;27;20226;-62
2022/09/05 00:12:43;;;;;;;0.83;0.60;;;;;;;;;;5119901;27;20207;-62
2022/09/05 00:15:38;;;;;;;0.40;0.40;;;;;;;;;;5111057;27;20194;-62
2022/09/05 00:18:40;;;;;;;0.33;0.33;;;;;;;;;;5115952;27;20198;-62
2022/09/05 00:21:42;;;;;;;0.47;0.47;;;;;;;;;;5108531;27;20688;-62
2022/09/05 00:24:48;;;;;;;0.40;0.40;;;;;;;;;;5117334;27;20207;-63
2022/09/05 00:27:45;;;;;;;0.40;0.40;;;;;;;;;;5115551;27;20666;-62
2022/09/05 00:30:41;;;;;;;0.50;0.50;;;;;;;;;;5114877;27;20602;-62
2022/09/05 00:33:36;;;;;;;0.40;0.40;;;;;;;;;;5114187;27;20242;-62
2022/09/05 00:36:36;;;;;;;0.50;0.50;;;;;;;;;;5116943;27;20214;-62
2022/09/05 00:39:26;;;;;;;0.40;0.40;;;;;;;;;;5117120;27;20207;-62
2022/09/05 00:42:17;;;;;;;0.47;0.47;;;;;;;;;;5115437;27;20239;-62
2022/09/05 00:45:08;;;;;;;0.60;0.60;;;;;;;;;;5122395;27;20593;-62
2022/09/05 00:48:05;;;;;;;0.50;0.50;;;;;;;;;;5117382;27;20199;-62
2022/09/05 00:51:01;;;;;;;0.50;0.50;;;;;;;;;;5119890;27;20274;-62
2022/09/05 00:53:59;;;;;;;0.60;0.60;;;;;;;;;;5124165;27;20201;-62
2022/09/05 00:57:07;;;;;;;0.60;0.60;;;;;;;;;;5113245;28;20221;-62
2022/09/05 01:00:10;;;;;;;0.40;0.40;;;;;;;;;;5122802;28;20194;-62
2022/09/05 01:03:26;;;;;;;0.40;0.40;;;;;;;;;;5118398;28;20206;-59
2022/09/05 01:06:19;;;;;;;0.40;0.40;;;;;;;;;;5111859;28;20320;-60
2022/09/05 01:09:14;;;;;;;0.30;0.30;;;;;;;;;;5114133;28;20619;-60
2022/09/05 01:12:14;;;;;;;0.30;0.30;;;;;;;;;;5114069;28;20225;-58
2022/09/05 01:15:13;;;;;;;0.40;0.40;;;;;;;;;;5110456;28;20210;-59
2022/09/05 01:18:19;;;;;;;0.40;0.40;;;;;;;;;;5113768;28;20210;-59
2022/09/05 01:21:37;;;;;;;0.43;0.43;;;;;;;;;;5111253;28;20657;-60
2022/09/05 01:24:48;;;;;;;0.40;0.40;;;;;;;;;;5120802;27;20239;-59
2022/09/05 01:27:53;;;;;;;0.47;0.47;;;;;;;;;;5124831;27;20205;-59
2022/09/05 01:30:46;;;;;;;0.60;0.50;;;;;;;;;;5119451;27;20908;-59
2022/09/05 01:33:47;;;;;;;0.30;0.30;;;;;;;;;;5121591;27;20280;-58
2022/09/05 01:36:48;;;;;;;0.40;0.40;;;;;;;;;;5116761;27;20202;-59
2022/09/05 01:39:48;;;;;;;0.30;0.30;;;;;;;;;;5116813;27;20205;-58
2022/09/05 01:42:42;;;;;;;0.43;0.43;;;;;;;;;;5124234;27;20204;-58
2022/09/05 01:45:46;;;;;;;0.37;0.37;;;;;;;;;;5126529;27;20235;-59
2022/09/05 01:48:42;;;;;;;0.50;0.50;;;;;;;;;;5119776;27;20207;-58
2022/09/05 01:51:34;;;;;;;0.40;0.40;;;;;;;;;;5117486;27;20210;-60
2022/09/05 01:54:30;;;;;;;0.60;0.60;;;;;;;;;;5123879;27;20219;-58
2022/09/05 01:57:24;;;;;;;0.40;0.40;;;;;;;;;;5121495;27;20666;-59
2022/09/05 02:00:15;;;;;;;0.40;0.40;;;;;;;;;;5120648;27;20217;-59
2022/09/05 02:03:17;;;;;;;0.47;0.47;;;;;;;;;;5122393;27;20564;-59
2022/09/05 02:06:29;;;;;;;0.60;0.60;;;;;;;;;;5121347;27;20226;-59
2022/09/05 02:09:34;;;;;;;0.30;0.30;;;;;;;;;;5121310;27;20286;-59
2022/09/05 02:12:30;;;;;;;1.03;0.40;;;;;;;;;;5122664;27;20214;-58
2022/09/05 02:15:24;;;;;;;0.30;0.30;;;;;;;;;;5122578;27;20210;-59
2022/09/05 02:18:19;;;;;;;0.30;0.30;;;;;;;;;;5119988;27;20688;-59
2022/09/05 02:21:13;;;;;;;0.53;0.53;;;;;;;;;;5119130;27;20437;-59
2022/09/05 02:24:12;;;;;;;0.30;0.30;;;;;;;;;;5123027;27;20206;-58
2022/09/05 02:27:13;;;;;;;0.37;0.33;;;;;;;;;;5121826;27;20203;-59
2022/09/05 02:30:07;;;;;;;0.50;0.50;;;;;;;;;;5118161;27;20234;-59
2022/09/05 02:33:08;;;;;;;0.40;0.40;;;;;;;;;;5121955;27;20199;-59
2022/09/05 02:36:05;;;;;;;0.40;0.40;;;;;;;;;;5120163;27;20210;-59
2022/09/05 02:38:58;;;;;;;0.50;0.50;;;;;;;;;;5122243;27;20623;-59
2022/09/05 02:41:52;;;;;;;0.40;0.40;;;;;;;;;;5116877;27;20209;-59
2022/09/05 02:44:51;;;;;;;0.40;0.40;;;;;;;;;;5121121;27;20290;-58
2022/09/05 02:47:43;;;;;;;0.50;0.50;;;;;;;;;;5119966;27;20292;-59
2022/09/05 02:50:41;;;;;;;0.30;0.30;;;;;;;;;;5118489;27;20226;-59
2022/09/05 02:53:30;;;;;;;0.40;0.40;;;;;;;;;;5123934;27;20205;-58
2022/09/05 02:56:40;;;;;;;0.30;0.30;;;;;;;;;;5119126;27;20211;-59
2022/09/05 02:59:42;;;;;;;0.40;0.33;;;;;;;;;;5117483;27;20643;-59
2022/09/05 03:02:35;;;;;;;0.97;0.40;;;;;;;;;;5123484;27;20201;-58
2022/09/05 03:05:27;;;;;;;0.50;0.50;;;;;;;;;;5120999;27;20257;-58
2022/09/05 03:08:24;;;;;;;0.40;0.40;;;;;;;;;;5123080;27;20679;-58
2022/09/05 03:11:52;;;;;;;0.40;0.40;;;;;;;;;;5120028;27;20221;-58
2022/09/05 03:15:02;;;;;;;0.20;0.20;;;;;;;;;;5115673;27;20346;-59
2022/09/05 03:18:37;;;;;;;0.40;0.40;;;;;;;;;;5115693;27;20202;-59
2022/09/05 03:22:01;;;;;;;0.43;0.40;;;;;;;;;;5031584;28;20209;-59
2022/09/05 03:25:09;;;;;;;0.40;0.40;;;;;;;;;;5120124;27;20210;-59
2022/09/05 03:28:32;;;;;;;0.40;0.40;;;;;;;;;;5119829;27;20203;-59
2022/09/05 03:31:50;;;;;;;0.40;0.40;;;;;;;;;;5094552;27;20241;-58
2022/09/05 03:34:54;;;;;;;0.47;0.47;;;;;;;;;;5115115;27;20753;-58
2022/09/05 03:38:02;;;;;;;0.33;0.33;;;;;;;;;;5115708;27;20234;-58
2022/09/05 03:41:01;;;;;;;0.43;0.43;;;;;;;;;;5121385;27;20662;-59
2022/09/05 03:44:31;;;;;;;0.40;0.40;;;;;;;;;;5118213;27;20217;-59
2022/09/05 03:47:41;;;;;;;0.37;0.37;;;;;;;;;;5015278;28;20287;-59
2022/09/05 03:50:37;;;;;;;0.47;0.47;;;;;;;;;;5019167;28;20225;-58
2022/09/05 03:53:46;;;;;;;0.50;0.50;;;;;;;;;;5118615;27;20202;-58
2022/09/05 03:56:53;;;;;;;0.40;0.40;;;;;;;;;;5114359;27;20202;-58
2022/09/05 04:00:03;;;;;;;0.50;0.50;;;;;;;;;;5121066;27;20210;-60
2022/09/05 04:03:09;;;;;;;0.40;0.40;;;;;;;;;;5117350;27;20202;-58
2022/09/05 04:06:05;;;;;;;0.40;0.40;;;;;;;;;;5122505;27;20233;-59
2022/09/05 04:09:01;;;;;;;0.40;0.40;;;;;;;;;;5114209;27;21104;-58
2022/09/05 04:11:51;;;;;;;0.50;0.50;;;;;;;;;;5118135;27;20229;-59
2022/09/05 04:14:45;;;;;;;0.40;0.40;;;;;;;;;;5122292;27;20210;-59
2022/09/05 04:17:37;;;;;;;0.30;0.30;;;;;;;;;;5119574;27;20206;-59
2022/09/05 04:20:36;;;;;;;0.40;0.40;;;;;;;;;;5118486;27;20244;-58
2022/09/05 04:23:31;;;;;;;0.53;0.53;;;;;;;;;;5113290;27;20238;-58
2022/09/05 04:26:30;;;;;;;0.37;0.37;;;;;;;;;;5116591;27;20360;-59
2022/09/05 04:29:25;;;;;;;0.40;0.40;;;;;;;;;;5114076;27;20206;-59
2022/09/05 04:32:22;;;;;;;0.87;0.70;;;;;;;;;;5120412;27;20617;-58
2022/09/05 04:35:33;;;;;;;0.47;0.47;;;;;;;;;;5115364;27;20561;-59
2022/09/05 04:38:35;;;;;;;0.50;0.50;;;;;;;;;;5121987;27;20210;-59
2022/09/05 04:41:25;;;;;;;0.40;0.40;;;;;;;;;;5119307;27;20201;-59
2022/09/05 04:44:17;;;;;;;0.33;0.33;;;;;;;;;;5117182;27;20203;-58
2022/09/05 04:47:10;;;;;;;0.47;0.47;;;;;;;;;;5117181;27;20595;-59
2022/09/05 04:50:06;;;;;;;0.50;0.50;;;;;;;;;;5119304;27;20265;-58
2022/09/05 04:53:10;;;;;;;0.30;0.30;;;;;;;;;;5113678;28;20210;-59
2022/09/05 04:55:58;;;;;;;0.60;0.60;;;;;;;;;;5120383;28;20199;-60
2022/09/05 04:58:53;;;;;;;0.30;0.30;;;;;;;;;;5117596;27;20213;-59
2022/09/05 05:01:46;;;;;;;0.30;0.30;;;;;;;;;;5113710;28;20203;-58
2022/09/05 05:04:33;;;;;;;0.63;0.63;;;;;;;;;;5116697;28;20205;-59
2022/09/05 05:07:26;;;;;;;0.40;0.40;;;;;;;;;;5119469;28;20220;-58
2022/09/05 05:10:25;;;;;;;0.40;0.40;;;;;;;;;;5118193;28;20298;-59
2022/09/05 05:13:22;;;;;;;0.40;0.40;;;;;;;;;;5115956;28;20210;-58
2022/09/05 05:16:14;;;;;;;0.70;0.40;;;;;;;;;;5114558;28;20287;-59
2022/09/05 05:19:09;;;;;;;0.30;0.30;;;;;;;;;;5116524;28;20206;-59
2022/09/05 05:21:59;;;;;;;0.50;0.50;;;;;;;;;;5117992;28;20198;-59
2022/09/05 05:24:51;;;;;;;0.40;0.40;;;;;;;;;;5116844;28;20212;-59
2022/09/05 05:27:45;;;;;;;0.60;0.60;;;;;;;;;;5116188;28;20202;-59
2022/09/05 05:30:33;;;;;;;0.60;0.50;;;;;;;;;;5116615;28;20233;-59
2022/09/05 05:33:27;;;;;;;0.50;0.50;;;;;;;;;;5116305;28;20226;-58
2022/09/05 05:36:19;;;;;;;0.40;0.40;;;;;;;;;;5115141;28;20292;-60
2022/09/05 05:39:10;;;;;;;0.87;0.60;;;;;;;;;;5115074;28;20203;-58
2022/09/05 05:41:58;;;;;;;0.40;0.40;;;;;;;;;;5113660;28;20195;-59
2022/09/05 05:44:51;;;;;;;0.23;0.23;;;;;;;;;;5118337;28;20206;-58
2022/09/05 05:47:43;;;;;;;0.40;0.40;;;;;;;;;;5113186;28;20223;-59
2022/09/05 05:50:38;;;;;;;0.40;0.40;;;;;;;;;;5114828;28;20231;-58
2022/09/05 05:53:33;;;;;;;0.50;0.50;;;;;;;;;;5116697;28;20196;-58
2022/09/05 05:56:54;;;;;;;0.50;0.50;;;;;;;;;;5117162;28;20656;-58
2022/09/05 06:00:03;;;;;;;0.60;0.60;;;;;;;;;;5088344;28;20239;-59
2022/09/05 06:03:16;;;;;;;0.50;0.50;;;;;;;;;;5116028;28;20207;-59
2022/09/05 06:06:38;;;;;;;0.83;0.60;;;;;;;;;;5119823;28;20709;-58
2022/09/05 06:09:50;;;;;;;0.30;0.30;;;;;;;;;;5113602;27;20738;-58
2022/09/05 06:13:27;;;;;;;0.40;0.40;;;;;;;;;;5125982;27;20697;-59
2022/09/05 06:16:49;;;;;;;0.40;0.40;;;;;;;;;;5082008;27;20690;-58
2022/09/05 06:20:13;;;;;;;0.40;0.40;;;;;;;;;;5122886;27;20274;-58
2022/09/05 06:23:28;;;;;;;0.97;0.37;;;;;;;;;;5117521;27;20199;-58
2022/09/05 06:26:57;;;;;;;0.50;0.30;;;;;;;;;;5122889;27;20220;-59
2022/09/05 06:29:57;;;;;;;0.50;0.50;;;;;;;;;;5091138;27;20347;-58
2022/09/05 06:33:03;;;;;;;0.40;0.40;;;;;;;;;;5121198;27;20346;-58
2022/09/05 06:36:03;;;;;;;0.40;0.40;;;;;;;;;;5120409;27;20294;-58
2022/09/05 06:39:05;;;;;;;0.50;0.50;;;;;;;;;;5119662;27;20226;-59
2022/09/05 06:42:11;;;;;;;0.30;0.30;;;;;;;;;;5121025;27;20194;-60
2022/09/05 06:45:29;;;;;;;0.50;0.50;;;;;;;;;;5116303;27;20420;-59
2022/09/05 06:48:23;;;;;;;0.30;0.30;;;;;;;;;;5124512;27;20240;-60
2022/09/05 06:51:43;;;;;;;0.40;0.40;;;;;;;;;;5119364;27;20678;-59
2022/09/05 06:55:06;;;;;;;0.40;0.40;;;;;;;;;;5119758;27;20287;-58
2022/09/05 06:58:21;;;;;;;0.40;0.40;;;;;;;;;;5105779;27;20779;-58
2022/09/05 07:01:11;;;;;;;0.50;0.50;;;;;;;;;;5121893;27;20198;-59
2022/09/05 07:04:17;;;;;;;0.27;0.27;;;;;;;;;;5118000;27;20211;-59
2022/09/05 07:07:16;;;;;;;0.50;0.50;;;;;;;;;;5116575;27;20266;-59
2022/09/05 07:10:06;;;;;;;0.50;0.50;;;;;;;;;;5121785;27;20203;-59
2022/09/05 07:12:59;;;;;;;0.47;0.47;;;;;;;;;;5118203;27;20193;-58
2022/09/05 07:15:55;;;;;;;0.30;0.30;;;;;;;;;;5120615;27;20235;-58
2022/09/05 07:18:47;;;;;;;0.40;0.40;;;;;;;;;;5123818;27;20237;-59
2022/09/05 07:21:43;;;;;;;0.30;0.30;;;;;;;;;;5119183;27;20194;-59
2022/09/05 07:24:35;;;;;;;0.40;0.40;;;;;;;;;;5117433;27;20259;-57
2022/09/05 07:27:33;;;;;;;0.40;0.40;;;;;;;;;;5115567;27;20333;-57
2022/09/05 07:30:20;;;;;;;0.30;0.30;;;;;;;;;;5122806;27;20992;-58
2022/09/05 07:33:09;;;;;;;0.30;0.30;;;;;;;;;;5118287;27;20197;-57
2022/09/05 07:36:03;;;;;;;0.20;0.20;;;;;;;;;;5098713;28;20203;-56
2022/09/05 07:38:59;;;;;;;0.20;0.20;;;;;;;;;;5097800;28;20321;-55
2022/09/05 07:41:52;;;;;;;0.22;0.22;;;;;;;;;;5100740;28;20206;-55
2022/09/05 07:44:45;;;;;;;0.30;0.30;;;;;;;;;;5094749;28;20676;-56
2022/09/05 07:47:36;;;;;;;0.30;0.30;;;;;;;;;;5099186;28;20673;-56
2022/09/05 07:50:24;;;;;;;0.30;0.30;;;;;;;;;;5108445;28;20335;-58
2022/09/05 07:53:14;;;;;;;0.25;0.25;;;;;;;;;;5102337;27;20206;-58
2022/09/05 07:56:05;;;;;;;0.30;0.30;;;;;;;;;;5100203;28;20206;-58
2022/09/05 07:58:53;;;;;;;0.30;0.30;;;;;;;;;;5101868;28;20210;-58
2022/09/05 08:01:44;;;;;;;0.20;0.20;;;;;;;;;;5097536;28;20278;-59
2022/09/05 08:04:33;;;;;;;0.30;0.30;;;;;;;;;;5100981;28;20213;-58
2022/09/05 08:07:25;;;;;;;0.15;0.15;;;;;;;;;;5095249;28;20702;-58
2022/09/05 08:10:14;;;;;;;0.30;0.30;;;;;;;;;;5102310;28;20206;-55
2022/09/05 08:13:07;;;;;;;0.22;0.22;;;;;;;;;;5098805;28;20609;-58
2022/09/05 08:15:58;;;;;;;0.10;0.10;;;;;;;;;;5097601;28;20210;-58
2022/09/05 08:18:49;;;;;;;0.30;0.30;;;;;;;;;;5096880;28;20679;-57
2022/09/05 08:21:41;;;;;;;0.30;0.30;;;;;;;;;;5103297;28;20206;-57
2022/09/05 08:24:35;;;;;;;0.22;0.22;;;;;;;;;;5099405;28;20998;-57
2022/09/05 08:27:26;;;;;;;0.22;0.22;;;;;;;;;;5095756;28;20285;-58
2022/09/05 08:30:15;;;;;;;0.32;0.30;;;;;;;;;;5099225;28;20286;-58
2022/09/05 08:33:09;;;;;;;0.30;0.30;;;;;;;;;;5101210;28;20699;-58
2022/09/05 08:36:01;;;;;;;0.20;0.20;;;;;;;;;;5103054;28;20211;-57
2022/09/05 08:38:49;;;;;;;0.30;0.30;;;;;;;;;;5103988;28;20268;-58
2022/09/05 08:41:49;;;;;;;0.32;0.32;;;;;;;;;;5099234;28;20206;-58
2022/09/05 08:44:40;;;;;;;0.40;0.40;;;;;;;;;;5105792;28;20288;-58
2022/09/05 08:47:36;;;;;;;0.30;0.30;;;;;;;;;;5102014;28;20209;-58
2022/09/05 08:50:29;;;;;;;0.25;0.25;;;;;;;;;;5097508;28;20256;-58
2022/09/05 08:53:26;;;;;;;0.20;0.20;;;;;;;;;;5102826;28;20213;-58
2022/09/05 08:56:18;;;;;;;0.20;0.20;;;;;;;;;;5101068;28;20206;-58
2022/09/05 08:59:23;;;;;;;0.30;0.30;;;;;;;;;;5104559;28;20212;-58
2022/09/05 09:02:37;;;;;;;0.65;0.40;;;;;;;;;;5100677;28;20225;-58
2022/09/05 09:05:44;;;;;;;0.50;0.50;;;;;;;;;;5107087;28;20363;-58
2022/09/05 09:08:39;;;;;;;0.20;0.20;;;;;;;;;;5102909;28;20744;-58
2022/09/05 09:11:33;;;;;;;0.22;0.22;;;;;;;;;;5101665;28;20231;-58
2022/09/05 09:14:32;;;;;;;0.40;0.20;;;;;;;;;;5099505;28;20225;-58
2022/09/05 09:17:25;;;;;;;0.20;0.20;;;;;;;;;;5106277;28;20202;-58
2022/09/05 09:20:32;;;;;;;0.20;0.20;;;;;;;;;;5100902;28;20191;-57
2022/09/05 09:23:43;;;;;;;0.30;0.30;;;;;;;;;;5097419;28;20638;-58
2022/09/05 09:26:35;;;;;;;0.30;0.30;;;;;;;;;;5102762;28;20665;-57
2022/09/05 09:29:25;;;;;;;0.20;0.20;;;;;;;;;;5097121;28;20211;-58
2022/09/05 09:32:14;;;;;;;0.55;0.30;;;;;;;;;;5099605;28;20221;-57
2022/09/05 09:35:07;;;;;;;0.20;0.20;;;;;;;;;;5118610;28;20229;-58
2022/09/05 09:38:17;;;;;;;0.20;0.20;;;;;;;;;;5116449;28;20211;-58
2022/09/05 09:41:30;;;;;;;0.38;0.38;;;;;;;;;;5114306;28;20226;-57
2022/09/05 09:44:56;;;;;;;0.25;0.25;;;;;;;;;;5124407;27;20543;-57
2022/09/05 09:48:11;;;;;;;0.20;0.20;;;;;;;;;;5123855;27;20208;-57
2022/09/05 09:51:16;;;;;;;0.30;0.30;;;;;;;;;;5122024;27;20319;-58
2022/09/05 09:54:39;;;;;;;0.22;0.22;;;;;;;;;;5123563;27;20204;-60
2022/09/05 09:57:56;;;;;;;0.28;0.28;;;;;;;;;;5119926;27;20206;-57
2022/09/05 10:00:50;;;;;;;0.30;0.30;;;;;;;;;;5123961;27;20266;-58
2022/09/05 10:04:05;;;;;;;0.22;0.22;;;;;;;;;;5125354;27;20677;-57
2022/09/05 10:07:15;;;;;;;0.20;0.20;;;;;;;;;;5117384;27;20226;-58
2022/09/05 10:10:28;;;;;;;0.25;0.25;;;;;;;;;;5120068;27;20248;-58
2022/09/05 10:13:25;;;;;;;0.15;0.15;;;;;;;;;;5120953;27;20225;-58
2022/09/05 10:16:44;;;;;;;0.28;0.28;;;;;;;;;;5120227;27;20246;-57
2022/09/05 10:19:45;;;;;;;0.20;0.20;;;;;;;;;;5119379;27;20206;-57
2022/09/05 10:23:02;;;;;;;0.10;0.10;;;;;;;;;;5119904;27;20196;-57
2022/09/05 10:26:14;;;;;;;0.10;0.10;;;;;;;;;;5125674;27;20209;-57
2022/09/05 10:29:06;;;;;;;0.30;0.30;;;;;;;;;;5121015;27;20199;-57
2022/09/05 10:31:56;;;;;;;0.20;0.20;;;;;;;;;;5116914;27;20754;-58
2022/09/05 10:34:47;;;;;;;0.20;0.20;;;;;;;;;;5118711;27;20234;-58
2022/09/05 10:37:41;;;;;;;0.45;0.20;;;;;;;;;;5123972;27;20198;-58
2022/09/05 10:40:30;;;;;;;0.10;0.10;;;;;;;;;;5117286;27;20311;-58
2022/09/05 10:43:27;;;;;;;0.30;0.30;;;;;;;;;;5122260;27;20209;-58
2022/09/05 10:46:26;;;;;;;0.82;0.20;;;;;;;;;;5118262;27;20205;-58
2022/09/05 10:49:14;;;;;;;0.45;0.20;;;;;;;;;;5119982;27;20221;-57
2022/09/05 10:52:07;;;;;;;0.10;0.10;;;;;;;;;;5123377;27;20303;-58
2022/09/05 10:55:05;;;;;;;0.13;0.13;;;;;;;;;;5117134;27;20204;-59
2022/09/05 10:58:01;;;;;;;0.20;0.20;;;;;;;;;;5118569;27;20233;-58
2022/09/05 11:01:01;;;;;;;0.15;0.15;;;;;;;;;;5115075;27;20290;-57
2022/09/05 11:03:52;;;;;;;0.20;0.20;;;;;;;;;;5120363;27;20206;-58
2022/09/05 11:06:53;;;;;;;0.30;0.30;;;;;;;;;;5119001;27;20308;-58
2022/09/05 11:09:58;;;;;;;0.20;0.20;;;;;;;;;;5125834;27;20287;-58
2022/09/05 11:12:58;;;;;;;0.20;0.20;;;;;;;;;;5119596;27;20703;-57
2022/09/05 11:15:58;;;;;;;0.20;0.20;;;;;;;;;;5116833;27;20237;-58
2022/09/05 11:18:55;;;;;;;0.15;0.15;;;;;;;;;;5119273;27;20205;-57
2022/09/05 11:21:58;;;;;;;0.55;0.55;;;;;;;;;;5123527;27;20205;-58
2022/09/05 11:24:54;;;;;;;0.38;0.38;;;;;;;;;;5120489;27;20232;-58
2022/09/05 11:27:44;;;;;;;0.30;0.30;;;;;;;;;;5116962;27;20230;-58
2022/09/05 11:30:39;;;;;;;0.40;0.40;;;;;;;;;;5123669;27;20204;-58
2022/09/05 11:33:54;;;;;;;0.20;0.20;;;;;;;;;;5120341;27;20232;-58
2022/09/05 11:36:46;;;;;;;0.35;0.35;;;;;;;;;;5114448;27;20710;-57
2022/09/05 11:40:10;;;;;;;0.35;0.35;;;;;;;;;;5120774;27;20295;-58
2022/09/05 11:43:39;;;;;;;0.20;0.20;;;;;;;;;;5113364;27;20254;-58
2022/09/05 11:46:34;;;;;;;0.15;0.10;;;;;;;;;;5112484;27;20216;-59
2022/09/05 11:49:46;;;;;;;0.30;0.30;;;;;;;;;;5120100;27;20326;-58
2022/09/05 11:53:00;;;;;;;0.30;0.30;;;;;;;;;;5115720;27;20600;-58
2022/09/05 11:56:04;;;;;;;0.22;0.22;;;;;;;;;;5118709;27;20209;-58
2022/09/05 11:59:09;;;;;;;0.32;0.32;;;;;;;;;;5116261;27;20291;-57
2022/09/05 12:02:15;;;;;;;0.22;0.22;;;;;;;;;;5118223;27;20216;-58
2022/09/05 12:05:30;;;;;;;0.10;0.10;;;;;;;;;;5117593;27;20205;-58
2022/09/05 12:08:28;;;;;;;0.10;0.10;;;;;;;;;;5118094;27;20238;-58
2022/09/05 12:11:26;;;;;;;0.30;0.30;;;;;;;;;;5118210;27;20235;-58
2022/09/05 12:14:30;;;;;;;0.40;0.40;;;;;;;;;;5117690;27;20213;-58
2022/09/05 12:17:25;;;;;;;0.20;0.20;;;;;;;;;;5116987;27;20214;-58
2022/09/05 12:20:20;;;;;;;0.30;0.30;;;;;;;;;;5119782;27;20217;-58
2022/09/05 12:23:19;;;;;;;0.30;0.30;;;;;;;;;;5116184;27;20207;-59
2022/09/05 12:26:13;;;;;;;0.20;0.20;;;;;;;;;;5116777;27;20208;-58
2022/09/05 12:29:07;;;;;;;0.20;0.20;;;;;;;;;;5118974;27;20903;-58
2022/09/05 12:31:58;;;;;;;0.10;0.10;;;;;;;;;;5116233;27;20652;-57
2022/09/05 12:34:50;;;;;;;0.40;0.40;;;;;;;;;;5117827;27;20260;-58
2022/09/05 12:37:48;;;;;;;0.30;0.30;;;;;;;;;;5122928;27;20204;-58
2022/09/05 12:40:42;;;;;;;0.30;0.30;;;;;;;;;;5117285;27;20205;-58
2022/09/05 12:43:30;;;;;;;0.63;0.20;;;;;;;;;;5123736;27;20208;-58
2022/09/05 12:46:25;;;;;;;0.52;0.30;;;;;;;;;;5121092;27;20233;-57
2022/09/05 12:49:25;;;;;;;0.20;0.20;;;;;;;;;;5119260;27;20254;-57
2022/09/05 12:52:15;;;;;;;0.35;0.25;;;;;;;;;;5120450;27;20283;-58
2022/09/05 12:55:08;;;;;;;0.20;0.20;;;;;;;;;;5120616;27;20239;-58
2022/09/05 12:57:59;;;;;;;0.28;0.28;;;;;;;;;;5116009;27;20216;-58
2022/09/05 13:00:48;;;;;;;0.35;0.35;;;;;;;;;;5116278;28;20694;-58
2022/09/05 13:03:46;;;;;;;0.25;0.25;;;;;;;;;;5119357;27;20236;-58
2022/09/05 13:06:38;;;;;;;0.30;0.30;;;;;;;;;;5114861;28;20226;-58
2022/09/05 13:09:28;;;;;;;0.40;0.40;;;;;;;;;;5117125;28;20202;-58
2022/09/05 13:12:23;;;;;;;0.50;0.20;;;;;;;;;;5118400;28;20201;-59
2022/09/05 13:15:17;;;;;;;0.28;0.28;;;;;;;;;;5118568;28;20213;-58
2022/09/05 13:18:09;;;;;;;0.25;0.25;;;;;;;;;;5116756;28;20677;-58
2022/09/05 13:21:05;;;;;;;0.30;0.30;;;;;;;;;;5117959;27;20204;-60
2022/09/05 13:24:04;;;;;;;0.20;0.20;;;;;;;;;;5123820;27;20282;-57
2022/09/05 13:26:56;;;;;;;0.30;0.30;;;;;;;;;;5120332;27;21150;-59
2022/09/05 13:29:52;;;;;;;0.20;0.17;;;;;;;;;;5121015;27;20221;-59
2022/09/05 13:32:44;;;;;;;0.20;0.20;;;;;;;;;;5118570;27;20351;-60
2022/09/05 13:35:35;;;;;;;0.15;0.15;;;;;;;;;;5121733;27;20225;-60
2022/09/05 13:38:35;;;;;;;0.30;0.30;;;;;;;;;;5116371;27;20224;-60
2022/09/05 13:41:28;;;;;;;0.38;0.30;;;;;;;;;;5119135;27;20221;-60
2022/09/05 13:44:20;;;;;;;1.02;0.60;;;;;;;;;;5120042;27;20247;-59
2022/09/05 13:47:13;;;;;;;0.30;0.30;;;;;;;;;;5122813;27;20288;-59
2022/09/05 13:50:18;;;;;;;0.38;0.38;;;;;;;;;;5119521;27;20202;-59
2022/09/05 13:53:14;;;;;;;0.20;0.20;;;;;;;;;;5119530;27;20685;-59
2022/09/05 13:56:22;;;;;;;0.60;0.43;;;;;;;;;;5125605;27;20238;-60
2022/09/05 13:59:14;;;;;;;0.30;0.30;;;;;;;;;;5119378;27;20224;-59
2022/09/05 14:02:26;;;;;;;0.40;0.40;;;;;;;;;;5121481;27;20213;-60
2022/09/05 14:05:26;;;;;;;0.40;0.40;;;;;;;;;;5117104;27;20343;-60
2022/09/05 14:08:34;;;;;;;0.32;0.32;;;;;;;;;;5120196;27;20197;-59
2022/09/05 14:11:46;;;;;;;0.25;0.25;;;;;;;;;;5117168;27;20236;-59
2022/09/05 14:14:41;;;;;;;0.40;0.40;;;;;;;;;;5118817;27;20724;-60
2022/09/05 14:17:37;;;;;;;0.40;0.40;;;;;;;;;;5114743;27;20245;-59
2022/09/05 14:23:43;;;;;;;0.45;0.45;;;;;;;;;;5121440;27;20201;-59
2022/09/05 14:26:34;;;;;;;0.50;0.40;;;;;;;;;;5116429;27;20327;-60
2022/09/05 14:29:26;;;;;;;0.40;0.40;;;;;;;;;;5120413;27;20320;-59
2022/09/05 14:32:48;;;;;;;0.30;0.30;;;;;;;;;;5114803;27;20210;-59
2022/09/05 14:35:48;;;;;;;1.55;0.47;;;;;;;;;;5114140;27;20728;-60
2022/09/05 14:38:53;;;;;;;0.35;0.35;;;;;;;;;;5121590;27;20224;-60
2022/09/05 14:42:11;;;;;;;0.30;0.30;;;;;;;;;;5119949;27;20233;-60
2022/09/05 14:45:15;;;;;;;0.40;0.40;;;;;;;;;;5115629;27;20665;-59
2022/09/05 14:48:30;;;;;;;0.30;0.30;;;;;;;;;;5123014;27;20201;-60
2022/09/05 14:51:27;;;;;;;0.35;0.35;;;;;;;;;;5114593;27;20197;-59
2022/09/05 14:54:20;;;;;;;0.28;0.28;;;;;;;;;;5113961;27;20222;-59
2022/09/05 14:57:15;;;;;;;0.40;0.40;;;;;;;;;;5121858;27;20205;-59
2022/09/05 15:00:06;;;;;;;0.40;0.40;;;;;;;;;;5120867;27;20670;-59
2022/09/05 15:02:55;;;;;;;0.43;0.43;;;;;;;;;;5118977;27;20190;-59
2022/09/05 15:05:48;;;;;;;0.30;0.30;;;;;;;;;;5115330;27;20230;-60
2022/09/05 15:08:36;;;;;;;0.50;0.50;;;;;;;;;;5120883;27;20300;-59
2022/09/05 15:11:25;;;;;;;0.43;0.43;;;;;;;;;;5109860;27;20559;-60
2022/09/05 15:14:13;;;;;;;0.40;0.40;;;;;;;;;;5116428;27;20228;-59
2022/09/05 15:17:03;;;;;;;0.50;0.50;;;;;;;;;;5119929;27;20284;-59
2022/09/05 15:19:54;;;;;;;0.63;0.43;;;;;;;;;;5114755;27;20267;-60
2022/09/05 15:22:42;;;;;;;0.40;0.40;;;;;;;;;;5118259;27;20206;-59
2022/09/05 15:25:31;;;;;;;1.30;0.35;;;;;;;;;;5124830;27;20212;-59
2022/09/05 15:28:20;;;;;;;0.50;0.50;;;;;;;;;;5122039;27;20216;-59
2022/09/05 15:31:10;;;;;;;0.35;0.35;;;;;;;;;;5118658;27;20273;-60
2022/09/05 15:34:25;;;;;;;0.40;0.40;;;;;;;;;;5120034;27;20220;-60
2022/09/05 15:37:24;;;;;;;0.40;0.40;;;;;;;;;;5125049;27;20205;-59
2022/09/05 15:40:15;;;;;;;1.55;0.40;;;;;;;;;;5125369;27;20212;-60
2022/09/05 15:43:03;;;;;;;0.40;0.40;;;;;;;;;;5118536;27;20206;-60
2022/09/05 15:45:49;;;;;;;0.40;0.40;;;;;;;;;;5118186;27;20224;-59
2022/09/05 15:48:39;;;;;;;0.45;0.45;;;;;;;;;;5121730;27;20679;-59
2022/09/05 15:51:40;;;;;;;0.50;0.50;;;;;;;;;;5121811;27;20254;-59
2022/09/05 15:54:30;;;;;;;0.40;0.40;;;;;;;;;;5117549;27;20224;-59
2022/09/05 15:57:22;;;;;;;0.40;0.40;;;;;;;;;;5115036;27;20205;-59
2022/09/05 16:00:12;;;;;;;0.68;0.50;;;;;;;;;;5119099;27;20253;-59
2022/09/05 16:03:00;;;;;;;0.40;0.40;;;;;;;;;;5118286;27;20235;-59
2022/09/05 16:05:58;;;;;;;0.40;0.40;;;;;;;;;;5119696;27;20236;-59
2022/09/05 16:08:49;;;;;;;0.30;0.30;;;;;;;;;;5115884;27;20211;-60
2022/09/05 16:11:40;;;;;;;0.40;0.40;;;;;;;;;;5119715;27;20207;-60
2022/09/05 16:14:32;;;;;;;0.40;0.40;;;;;;;;;;5118855;27;20262;-59
2022/09/05 16:17:26;;;;;;;0.87;0.37;;;;;;;;;;5120153;27;20290;-60
2022/09/05 16:20:15;;;;;;;0.35;0.35;;;;;;;;;;5122145;27;20211;-59
2022/09/05 16:23:10;;;;;;;0.53;0.47;;;;;;;;;;5116697;27;20208;-59
2022/09/05 16:26:00;;;;;;;0.47;0.47;;;;;;;;;;5114031;27;20664;-59
2022/09/05 16:28:50;;;;;;;0.40;0.40;;;;;;;;;;5117520;27;20693;-59
2022/09/05 16:31:45;;;;;;;0.30;0.30;;;;;;;;;;5115466;27;20211;-60
2022/09/05 16:34:41;;;;;;;0.30;0.30;;;;;;;;;;5119933;27;20242;-59
2022/09/05 16:37:35;;;;;;;0.40;0.40;;;;;;;;;;5111596;27;20606;-60
2022/09/05 16:40:27;;;;;;;0.60;0.50;;;;;;;;;;5118762;27;20262;-59
2022/09/05 16:43:19;;;;;;;0.30;0.30;;;;;;;;;;5119239;27;20205;-60
2022/09/05 16:46:13;;;;;;;0.30;0.30;;;;;;;;;;5112121;27;20203;-66
2022/09/05 16:49:08;;;;;;;0.40;0.40;;;;;;;;;;5116229;27;20218;-60
2022/09/05 16:52:01;;;;;;;0.57;0.50;;;;;;;;;;5125647;27;20580;-59
2022/09/05 16:54:52;;;;;;;0.40;0.40;;;;;;;;;;5115628;27;20325;-60
2022/09/05 16:57:42;;;;;;;0.30;0.30;;;;;;;;;;5117291;27;20239;-59
2022/09/05 17:00:46;;;;;;;0.50;0.50;;;;;;;;;;5115978;28;20235;-59
2022/09/05 17:03:42;;;;;;;0.30;0.30;;;;;;;;;;5114581;27;20211;-59
2022/09/05 17:06:48;;;;;;;0.27;0.27;;;;;;;;;;5112772;28;20279;-59
2022/09/05 17:09:40;;;;;;;0.37;0.37;;;;;;;;;;5115766;28;20332;-59
2022/09/05 17:12:32;;;;;;;0.40;0.40;;;;;;;;;;5110987;28;20221;-60
2022/09/05 17:15:22;;;;;;;0.40;0.40;;;;;;;;;;5119530;28;20277;-59
2022/09/05 17:18:13;;;;;;;0.30;0.30;;;;;;;;;;5118735;28;20203;-59
2022/09/05 17:21:06;;;;;;;0.30;0.30;;;;;;;;;;5119754;28;20270;-59
2022/09/05 17:23:56;;;;;;;0.47;0.47;;;;;;;;;;5112480;28;20213;-59
2022/09/05 17:26:43;;;;;;;0.40;0.40;;;;;;;;;;5116595;28;20275;-59
2022/09/05 17:29:53;;;;;;;0.50;0.50;;;;;;;;;;5118919;28;20210;-59
2022/09/05 17:32:46;;;;;;;0.60;0.60;;;;;;;;;;5118319;28;20207;-59
2022/09/05 17:35:53;;;;;;;0.50;0.50;;;;;;;;;;5119433;28;20918;-59
2022/09/05 17:39:03;;;;;;;0.60;0.60;;;;;;;;;;5120716;28;20823;-60
2022/09/05 17:42:12;;;;;;;0.70;0.70;;;;;;;;;;5118874;28;20217;-59
2022/09/05 17:45:11;;;;;;;0.57;0.57;;;;;;;;;;5116176;28;20201;-59
2022/09/05 17:47:58;;;;;;;0.50;0.50;;;;;;;;;;5114480;28;20207;-60
2022/09/05 17:50:49;;;;;;;0.47;0.47;;;;;;;;;;5120688;28;20206;-59
2022/09/05 17:54:26;;;;;;;0.50;0.50;;;;;;;;;;5117097;28;20202;-59